Map

Track Data

SID SEASON NUMBER BASIN SUBBASIN NAME ISO_TIME NATURE LAT LON WMO_WIND WMO_PRES WMO_AGENCY TRACK_TYPE DIST2LAND LANDFALL IFLAG USA_AGENCY USA_ATCF_ID USA_LAT USA_LON USA_RECORD USA_STATUS USA_WIND USA_PRES USA_SSHS USA_R34_NE USA_R34_SE USA_R34_SW USA_R34_NW USA_R50_NE USA_R50_SE USA_R50_SW USA_R50_NW USA_R64_NE USA_R64_SE USA_R64_SW USA_R64_NW USA_POCI USA_ROCI USA_RMW USA_EYE TOKYO_LAT TOKYO_LON TOKYO_GRADE TOKYO_WIND TOKYO_PRES TOKYO_R50_DIR TOKYO_R50_LONG TOKYO_R50_SHORT TOKYO_R30_DIR TOKYO_R30_LONG TOKYO_R30_SHORT TOKYO_LAND CMA_LAT CMA_LON CMA_CAT CMA_WIND CMA_PRES HKO_LAT HKO_LON HKO_CAT HKO_WIND HKO_PRES NEWDELHI_LAT NEWDELHI_LON NEWDELHI_GRADE NEWDELHI_WIND NEWDELHI_PRES NEWDELHI_CI NEWDELHI_DP NEWDELHI_POCI REUNION_LAT REUNION_LON REUNION_TYPE REUNION_WIND REUNION_PRES REUNION_TNUM REUNION_CI REUNION_RMW REUNION_R34_NE REUNION_R34_SE REUNION_R34_SW REUNION_R34_NW REUNION_R50_NE REUNION_R50_SE REUNION_R50_SW REUNION_R50_NW REUNION_R64_NE REUNION_R64_SE REUNION_R64_SW REUNION_R64_NW BOM_LAT BOM_LON BOM_TYPE BOM_WIND BOM_PRES BOM_TNUM BOM_CI BOM_RMW BOM_R34_NE BOM_R34_SE BOM_R34_SW BOM_R34_NW BOM_R50_NE BOM_R50_SE BOM_R50_SW BOM_R50_NW BOM_R64_NE BOM_R64_SE BOM_R64_SW BOM_R64_NW BOM_ROCI BOM_POCI BOM_EYE BOM_POS_METHOD BOM_PRES_METHOD NADI_LAT NADI_LON NADI_CAT NADI_WIND NADI_PRES WELLINGTON_LAT WELLINGTON_LON WELLINGTON_WIND WELLINGTON_PRES DS824_LAT DS824_LON DS824_STAGE DS824_WIND DS824_PRES TD9636_LAT TD9636_LON TD9636_STAGE TD9636_WIND TD9636_PRES TD9635_LAT TD9635_LON TD9635_WIND TD9635_PRES TD9635_ROCI NEUMANN_LAT NEUMANN_LON NEUMANN_CLASS NEUMANN_WIND NEUMANN_PRES MLC_LAT MLC_LON MLC_CLASS MLC_WIND MLC_PRES USA_GUST BOM_GUST BOM_GUST_PER REUNION_GUST REUNION_GUST_PER USA_SEAHGT USA_SEARAD_NE USA_SEARAD_SE USA_SEARAD_SW USA_SEARAD_NW STORM_SPEED STORM_DIR
1896011S12069 1896 1 SI MM NOT_NAMED 1896-01-11 00:00:00 TS -11.5000 68.6000 main 1511 1471 _________O____ -1 -11.5000 68.6000 TC 8 242
1896011S12069 1896 1 SI MM NOT_NAMED 1896-01-11 03:00:00 TS -11.6901 68.2401 main 1463 1424 _________P____ -1 -11.6901 68.2401 TC 8 240
1896011S12069 1896 1 SI MM NOT_NAMED 1896-01-11 06:00:00 TS -11.9000 67.9000 main 1424 1385 _________O____ -1 -11.9000 67.9000 TC 8 235
1896011S12069 1896 1 SI MM NOT_NAMED 1896-01-11 09:00:00 TS -12.1424 67.5925 main 1385 1338 _________P____ -1 -12.1424 67.5925 TC 8 230
1896011S12069 1896 1 SI MM NOT_NAMED 1896-01-11 12:00:00 TS -12.4000 67.3000 main 1338 1299 _________O____ -1 -12.4000 67.3000 TC 8 228
1896011S12069 1896 1 SI MM NOT_NAMED 1896-01-11 15:00:00 TS -12.6499 67.0074 main 1299 1252 _________P____ -1 -12.6499 67.0074 TC 8 230
1896011S12069 1896 1 SI MM NOT_NAMED 1896-01-11 18:00:00 TS -12.9000 66.7000 main 1252 1213 _________O____ -1 -12.9000 66.7000 TC 8 232
1896011S12069 1896 1 SI MM NOT_NAMED 1896-01-11 21:00:00 TS -13.1575 66.3425 main 1197 1158 _________P____ -1 -13.1575 66.3425 TC 8 234
1896011S12069 1896 1 SI MM NOT_NAMED 1896-01-12 00:00:00 TS -13.4000 66.0000 main 1158 1119 _________O____ -1 -13.4000 66.0000 TC 8 232
1896011S12069 1896 1 SI MM NOT_NAMED 1896-01-12 03:00:00 TS -13.6149 65.7349 main 1119 1088 _________P____ -1 -13.6149 65.7349 TC 6 231
1896011S12069 1896 1 SI MM NOT_NAMED 1896-01-12 06:00:00 TS -13.8000 65.5000 main 1088 1064 _________O____ -1 -13.8000 65.5000 TC 6 235
1896011S12069 1896 1 SI MM NOT_NAMED 1896-01-12 09:00:00 TS -13.9500 65.2499 main 1056 1025 _________P____ -1 -13.9500 65.2499 TC 6 238
1896011S12069 1896 1 SI MM NOT_NAMED 1896-01-12 12:00:00 TS -14.1000 65.0000 main 1025 994 _________O____ -1 -14.1000 65.0000 TC 6 235
1896011S12069 1896 1 SI MM NOT_NAMED 1896-01-12 15:00:00 TS -14.2925 64.7500 main 986 955 _________P____ -1 -14.2925 64.7500 TC 6 230
1896011S12069 1896 1 SI MM NOT_NAMED 1896-01-12 18:00:00 TS -14.5000 64.5000 main 955 916 _________O____ -1 -14.5000 64.5000 TC 6 231
1896011S12069 1896 1 SI MM NOT_NAMED 1896-01-12 21:00:00 TS -14.7000 64.2350 main 916 885 _________P____ -1 -14.7000 64.2350 TC 6 230
1896011S12069 1896 1 SI MM NOT_NAMED 1896-01-13 00:00:00 TS -14.9000 64.0000 main 885 854 _________O____ -1 -14.9000 64.0000 TC 6 224
1896011S12069 1896 1 SI MM NOT_NAMED 1896-01-13 03:00:00 TS -15.1000 63.8349 main 854 832 _________P____ -1 -15.1000 63.8349 TC 5 216
1896011S12069 1896 1 SI MM NOT_NAMED 1896-01-13 06:00:00 TS -15.3000 63.7000 main 832 809 _________O____ -1 -15.3000 63.7000 TC 5 215
1896011S12069 1896 1 SI MM NOT_NAMED 1896-01-13 09:00:00 TS -15.5075 63.5425 main 801 778 _________P____ -1 -15.5075 63.5425 TC 5 216
1896011S12069 1896 1 SI MM NOT_NAMED 1896-01-13 12:00:00 TS -15.7000 63.4000 main 778 763 _________O____ -1 -15.7000 63.4000 TC 4 215
1896011S12069 1896 1 SI MM NOT_NAMED 1896-01-13 15:00:00 TS -15.8500 63.2924 main 763 740 _________P____ -1 -15.8500 63.2924 TC 4 213
1896011S12069 1896 1 SI MM NOT_NAMED 1896-01-13 18:00:00 TS -16.0000 63.2000 main 740 718 _________O____ -1 -16.0000 63.2000 TC 4 211
1896011S12069 1896 1 SI MM NOT_NAMED 1896-01-13 21:00:00 TS -16.1775 63.0850 main 718 696 _________P____ -1 -16.1775 63.0850 TC 4 206
1896011S12069 1896 1 SI MM NOT_NAMED 1896-01-14 00:00:00 TS -16.4000 63.0000 main 696 676 _________O____ -1 -16.4000 63.0000 TC 5 192
1896011S12069 1896 1 SI MM NOT_NAMED 1896-01-14 03:00:00 TS -16.6850 62.9775 main 676 657 _________P____ -1 -16.6850 62.9775 TC 6 179
1896011S12069 1896 1 SI MM NOT_NAMED 1896-01-14 06:00:00 TS -17.0000 63.0000 main 657 640 _________O____ -1 -17.0000 63.0000 TC 6 174
1896011S12069 1896 1 SI MM NOT_NAMED 1896-01-14 09:00:00 TS -17.3000 63.0350 main 640 633 _________P____ -1 -17.3000 63.0350 TC 6 171
1896011S12069 1896 1 SI MM NOT_NAMED 1896-01-14 12:00:00 TS -17.6000 63.1000 main 633 623 _________O____ -1 -17.6000 63.1000 TC 6 167
1896011S12069 1896 1 SI MM NOT_NAMED 1896-01-14 15:00:00 TS -17.9075 63.1850 main 627 618 _________P____ -1 -17.9075 63.1850 TC 6 162
1896011S12069 1896 1 SI MM NOT_NAMED 1896-01-14 18:00:00 TS -18.2000 63.3000 main 623 618 _________O____ -1 -18.2000 63.3000 TC 6 158
1896011S12069 1896 1 SI MM NOT_NAMED 1896-01-14 21:00:00 TS -18.4349 63.4053 main 624 620 _________P____ -1 -18.4349 63.4053 TC 6 150
1896011S12069 1896 1 SI MM NOT_NAMED 1896-01-15 00:00:00 TS -18.7000 63.6000 main 633 630 _________O____ -1 -18.7000 63.6000 TC 8 141
1896011S12069 1896 1 SI MM NOT_NAMED 1896-01-15 03:00:00 TS -19.0851 63.9623 main 662 660 _________P____ -1 -19.0851 63.9623 TC 11 137
1896011S12069 1896 1 SI MM NOT_NAMED 1896-01-15 06:00:00 TS -19.5000 64.4000 main 695 695 _________O____ -1 -19.5000 64.4000 TC 11 135
1896011S12069 1896 1 SI MM NOT_NAMED 1896-01-15 09:00:00 TS -19.8574 64.7928 main 732 732 _________P____ -1 -19.8574 64.7928 TC 10 133
1896011S12069 1896 1 SI MM NOT_NAMED 1896-01-15 12:00:00 TS -20.2000 65.2000 main 771 771 _________O____ -1 -20.2000 65.2000 TC 11 131
1896011S12069 1896 1 SI MM NOT_NAMED 1896-01-15 15:00:00 TS -20.5499 65.6427 main 813 813 _________P____ -1 -20.5499 65.6427 TC 11 130
1896011S12069 1896 1 SI MM NOT_NAMED 1896-01-15 18:00:00 TS -20.9000 66.1000 main 866 866 _________O____ -1 -20.9000 66.1000 TC 11 130
1896011S12069 1896 1 SI MM NOT_NAMED 1896-01-15 21:00:00 TS -21.2800 66.5723 main 921 921 _________P____ -1 -21.2800 66.5723 TC 11 130
1896011S12069 1896 1 SI MM NOT_NAMED 1896-01-16 00:00:00 TS -21.6000 67.0000 main 966 966 _________O____ -1 -21.6000 67.0000 TC 9 125
1896011S12069 1896 1 SI MM NOT_NAMED 1896-01-16 03:00:00 TS -21.7798 67.3304 main 999 999 _________P____ -1 -21.7798 67.3304 TC 6 118
1896011S12069 1896 1 SI MM NOT_NAMED 1896-01-16 06:00:00 TS -21.9000 67.6000 main 1031 1031 _________O____ -1 -21.9000 67.6000 TC 6 119
1896011S12069 1896 1 SI MM NOT_NAMED 1896-01-16 09:00:00 TS -22.0499 67.8576 main 1064 1064 _________P____ -1 -22.0499 67.8576 TC 6 123
1896011S12069 1896 1 SI MM NOT_NAMED 1896-01-16 12:00:00 TS -22.2000 68.1000 main 1087 1087 _________O____ -1 -22.2000 68.1000 TC 5 122
1896011S12069 1896 1 SI MM NOT_NAMED 1896-01-16 15:00:00 TS -22.3425 68.3576 main 1120 1120 _________P____ -1 -22.3425 68.3576 TC 6 123
1896011S12069 1896 1 SI MM NOT_NAMED 1896-01-16 18:00:00 TS -22.5000 68.6000 main 1144 1144 _________O____ -1 -22.5000 68.6000 TC 5 130
1896011S12069 1896 1 SI MM NOT_NAMED 1896-01-16 21:00:00 TS -22.6900 68.8099 main 1168 1168 _________P____ -1 -22.6900 68.8099 TC 5 137
1896011S12069 1896 1 SI MM NOT_NAMED 1896-01-17 00:00:00 TS -22.9000 69.0000 main 1193 _________O____ -1 -22.9000 69.0000 TC 5 140

About IBTrACS Database

This database is a web-friendly format of International Best Track Archive for Climate Stewardship (IBTrACS), a global best track data archive curated by NOAA dating back to 1842.

Updated: 2021-11-26